createdAt,value
2022-08-26T00:00:38.674Z,68.37
2022-08-26T00:04:06.878Z,68.63
2022-08-26T00:07:34.025Z,68.61
2022-08-26T00:11:01.260Z,68.78
2022-08-26T00:14:30.900Z,68.80
2022-08-26T00:17:59.234Z,68.92
2022-08-26T00:21:26.830Z,68.99
2022-08-26T00:24:54.495Z,69.14
2022-08-26T00:28:21.897Z,69.18
2022-08-26T00:31:51.139Z,69.20
2022-08-26T00:35:19.312Z,69.24
2022-08-26T00:38:46.574Z,69.33
2022-08-26T00:42:14.347Z,69.39
2022-08-26T00:45:46.935Z,69.55
2022-08-26T00:49:18.663Z,69.59
2022-08-26T00:52:48.559Z,69.74
2022-08-26T00:56:24.030Z,69.86
2022-08-26T00:59:58.495Z,69.89
2022-08-26T01:03:28.254Z,69.91
2022-08-26T01:07:20.375Z,69.83
2022-08-26T01:10:48.593Z,70.01
2022-08-26T01:14:21.239Z,69.99
2022-08-26T01:17:52.913Z,70.18
2022-08-26T01:21:28.204Z,70.12
2022-08-26T01:24:57.097Z,70.15
2022-08-26T01:28:29.719Z,70.23
2022-08-26T01:31:59.429Z,70.42
2022-08-26T01:35:27.055Z,70.49
2022-08-26T01:38:54.965Z,70.51
2022-08-26T01:42:23.756Z,70.37
2022-08-26T01:45:57.185Z,70.57
2022-08-26T01:49:26.149Z,70.53
2022-08-26T01:52:55.202Z,70.54
2022-08-26T01:56:23.080Z,70.47
2022-08-26T01:59:51.152Z,70.57
2022-08-26T02:03:22.058Z,70.53
2022-08-26T02:06:51.323Z,70.52
2022-08-26T02:10:19.798Z,70.47
2022-08-26T02:13:51.248Z,70.75
2022-08-26T02:17:19.324Z,70.74
2022-08-26T02:20:51.493Z,70.60
2022-08-26T02:24:21.630Z,70.79
2022-08-26T02:27:49.772Z,70.55
2022-08-26T02:31:17.008Z,70.59
2022-08-26T02:34:44.640Z,70.59
2022-08-26T02:38:12.416Z,70.68
2022-08-26T02:41:45.226Z,70.76
2022-08-26T02:45:13.789Z,70.83
2022-08-26T02:48:47.298Z,70.93
2022-08-26T02:52:17.218Z,70.94
2022-08-26T02:55:46.018Z,70.95
2022-08-26T02:59:15.932Z,71.04
2022-08-26T03:02:43.564Z,71.01
2022-08-26T03:06:11.880Z,71.13
2022-08-26T03:09:38.746Z,70.93
2022-08-26T03:13:07.607Z,70.95
2022-08-26T03:16:37.381Z,70.98
2022-08-26T03:20:08.940Z,71.15
2022-08-26T03:23:43.296Z,70.99
2022-08-26T03:27:10.904Z,71.08
2022-08-26T03:30:45.111Z,71.13
2022-08-26T03:34:13.210Z,71.18
2022-08-26T03:37:41.527Z,71.10
2022-08-26T03:41:11.114Z,71.25
2022-08-26T03:44:41.958Z,71.18
2022-08-26T03:48:09.846Z,71.16
2022-08-26T03:51:38.659Z,71.28
2022-08-26T03:55:07.221Z,71.36
2022-08-26T03:58:35.622Z,71.29
2022-08-26T04:02:02.923Z,71.33
2022-08-26T04:05:36.465Z,71.31
2022-08-26T04:09:08.558Z,71.43
2022-08-26T04:12:38.257Z,71.28
2022-08-26T04:16:06.358Z,71.37
2022-08-26T04:19:33.909Z,71.30
2022-08-26T04:23:01.000Z,71.22
2022-08-26T04:26:28.769Z,71.31
2022-08-26T04:29:56.203Z,71.43
2022-08-26T04:33:32.281Z,71.24
2022-08-26T04:37:02.092Z,71.36
2022-08-26T04:40:29.527Z,71.35
2022-08-26T04:43:57.327Z,71.43
2022-08-26T04:47:30.407Z,71.47
2022-08-26T04:51:00.452Z,71.43
2022-08-26T04:54:27.906Z,71.35
2022-08-26T04:57:56.867Z,71.50
2022-08-26T05:01:29.357Z,71.39
2022-08-26T05:04:57.874Z,71.36
2022-08-26T05:08:26.167Z,71.40
2022-08-26T05:11:55.520Z,71.30
2022-08-26T05:15:23.860Z,71.38
2022-08-26T05:18:55.479Z,71.23
2022-08-26T05:22:23.199Z,71.20
2022-08-26T05:25:55.821Z,70.96
2022-08-26T05:29:26.722Z,70.83
2022-08-26T05:32:55.477Z,70.87
2022-08-26T05:36:24.476Z,70.75
2022-08-26T05:39:54.857Z,70.91
2022-08-26T05:43:29.583Z,70.82
2022-08-26T05:46:58.590Z,70.87
2022-08-26T05:50:28.096Z,70.85
2022-08-26T05:54:05.708Z,71.16
2022-08-26T05:57:40.382Z,70.72
2022-08-26T06:01:16.138Z,70.93
2022-08-26T06:04:44.478Z,70.73
2022-08-26T06:08:15.489Z,70.83
2022-08-26T06:11:47.536Z,70.85
2022-08-26T06:15:15.306Z,70.78
2022-08-26T06:18:44.995Z,70.82
2022-08-26T06:22:25.892Z,70.73
2022-08-26T06:25:53.727Z,70.59
2022-08-26T06:29:24.854Z,70.37
2022-08-26T06:33:02.085Z,70.57
2022-08-26T06:36:33.238Z,70.21
2022-08-26T06:40:02.891Z,70.52
2022-08-26T06:43:33.588Z,70.52
2022-08-26T06:47:01.228Z,70.17
2022-08-26T06:50:28.012Z,70.15
2022-08-26T06:53:57.440Z,70.19
2022-08-26T06:57:25.314Z,70.05
2022-08-26T07:00:52.254Z,69.86
2022-08-26T07:04:22.337Z,69.90
2022-08-26T07:07:54.480Z,69.61
2022-08-26T07:11:22.113Z,69.48
2022-08-26T07:14:52.104Z,69.33
2022-08-26T07:18:22.957Z,69.02
2022-08-26T07:21:50.997Z,68.78
2022-08-26T07:25:19.330Z,68.84
2022-08-26T07:28:47.846Z,68.70
2022-08-26T07:32:17.271Z,68.26
2022-08-26T07:35:46.163Z,68.05
2022-08-26T07:39:13.967Z,68.05
2022-08-26T07:42:40.763Z,67.82
2022-08-26T07:46:16.291Z,67.56
2022-08-26T07:49:43.350Z,67.33
2022-08-26T07:53:11.973Z,67.11
2022-08-26T07:56:41.388Z,66.86
2022-08-26T08:00:14.809Z,66.57
2022-08-26T08:03:43.927Z,66.39
2022-08-26T08:07:13.015Z,66.17
2022-08-26T08:10:48.930Z,65.76
2022-08-26T08:14:22.067Z,65.37
2022-08-26T08:17:51.693Z,65.22
2022-08-26T08:21:24.322Z,65.08
2022-08-26T08:24:55.888Z,64.84
2022-08-26T08:28:22.976Z,64.55
2022-08-26T08:31:56.500Z,64.22
2022-08-26T08:35:26.674Z,63.97
2022-08-26T08:38:53.510Z,63.70
2022-08-26T08:42:45.955Z,63.48
2022-08-26T08:46:19.657Z,63.25
2022-08-26T08:49:55.940Z,62.87
2022-08-26T08:53:31.672Z,62.47
2022-08-26T08:57:07.703Z,62.09
2022-08-26T09:00:48.105Z,61.61
2022-08-26T09:04:51.991Z,61.21
2022-08-26T09:08:24.388Z,60.80
2022-08-26T09:11:52.138Z,60.62
2022-08-26T09:15:24.645Z,60.34
2022-08-26T09:19:05.769Z,60.01
2022-08-26T09:22:35.798Z,59.32
2022-08-26T09:26:06.165Z,59.04
2022-08-26T09:29:46.216Z,58.70
2022-08-26T09:33:28.863Z,58.24
2022-08-26T09:37:04.570Z,58.03
2022-08-26T09:40:37.060Z,57.89
2022-08-26T09:44:17.202Z,57.15
2022-08-26T09:47:56.335Z,56.77
2022-08-26T09:51:33.605Z,56.30
2022-08-26T09:55:13.559Z,56.10
2022-08-26T09:58:43.534Z,55.69
2022-08-26T10:02:28.590Z,55.26
2022-08-26T10:06:05.123Z,54.71
2022-08-26T10:09:37.492Z,54.38
2022-08-26T10:13:07.354Z,54.10
2022-08-26T10:16:48.814Z,53.64
2022-08-26T10:20:25.222Z,53.08
2022-08-26T10:23:56.990Z,52.91
2022-08-26T10:27:35.471Z,52.74
2022-08-26T10:31:06.812Z,51.98
2022-08-26T10:34:35.121Z,51.50
2022-08-26T10:38:11.618Z,51.31
2022-08-26T10:41:45.090Z,50.81
2022-08-26T10:45:15.247Z,50.35
2022-08-26T10:48:48.921Z,50.13
2022-08-26T10:52:23.506Z,49.68
2022-08-26T10:56:15.572Z,49.59
2022-08-26T11:00:01.709Z,49.13
2022-08-26T11:03:40.878Z,48.94
2022-08-26T11:07:46.307Z,48.33
2022-08-26T11:11:13.740Z,48.01
2022-08-26T11:14:53.553Z,47.77
2022-08-26T11:22:12.032Z,47.29
2022-08-26T11:26:35.462Z,47.19
2022-08-26T11:30:03.735Z,46.73
2022-08-26T11:33:54.162Z,46.34
2022-08-26T11:37:23.743Z,45.91
2022-08-26T11:41:20.117Z,45.66
2022-08-26T11:44:49.691Z,45.51
2022-08-26T11:48:21.097Z,45.20
2022-08-26T11:51:48.454Z,44.82
2022-08-26T11:55:19.209Z,44.62
2022-08-26T11:58:48.484Z,44.50
2022-08-26T12:02:19.829Z,44.27
2022-08-26T12:05:50.356Z,44.07
2022-08-26T12:09:24.527Z,43.72
2022-08-26T12:12:59.278Z,43.38
2022-08-26T12:16:28.904Z,43.49
2022-08-26T12:19:57.207Z,42.77
2022-08-26T12:23:37.163Z,42.16
2022-08-26T12:27:19.278Z,42.22
2022-08-26T12:31:02.103Z,41.61
2022-08-26T12:34:28.456Z,41.45
2022-08-26T12:37:58.418Z,41.30
2022-08-26T12:41:49.317Z,41.05
2022-08-26T12:45:36.362Z,40.53
2022-08-26T12:49:54.968Z,40.34
2022-08-26T12:53:50.961Z,39.62
2022-08-26T12:57:18.288Z,39.63
2022-08-26T13:00:47.833Z,39.20
2022-08-26T13:04:36.583Z,38.88
2022-08-26T13:08:26.265Z,38.46
2022-08-26T13:12:02.695Z,38.24
2022-08-26T13:15:29.642Z,37.80
2022-08-26T13:19:04.020Z,37.78
2022-08-26T13:22:31.766Z,37.28
2022-08-26T13:26:00.238Z,36.82
2022-08-26T13:29:26.993Z,36.46
2022-08-26T13:33:02.206Z,36.33
2022-08-26T13:36:32.300Z,36.12
2022-08-26T13:39:59.414Z,35.98
2022-08-26T13:43:28.361Z,35.84
2022-08-26T13:46:57.301Z,35.39
2022-08-26T13:50:26.502Z,35.26
2022-08-26T13:54:00.751Z,34.87
2022-08-26T13:57:29.023Z,34.61
2022-08-26T14:00:59.574Z,34.40
2022-08-26T14:04:27.597Z,33.97
2022-08-26T14:07:59.084Z,33.89
2022-08-26T14:11:27.384Z,33.70
2022-08-26T14:14:55.259Z,33.38
2022-08-26T14:18:30.685Z,33.00
2022-08-26T14:21:59.554Z,32.73
2022-08-26T14:25:30.090Z,32.83
2022-08-26T14:28:57.270Z,32.69
2022-08-26T14:32:28.060Z,32.43
2022-08-26T14:36:18.186Z,32.47
2022-08-26T14:39:45.743Z,31.88
2022-08-26T14:43:14.078Z,31.96
2022-08-26T14:46:46.128Z,31.80
2022-08-26T14:50:16.770Z,31.67
2022-08-26T14:54:04.291Z,31.63
2022-08-26T14:57:32.003Z,31.53
2022-08-26T15:01:00.112Z,31.28
2022-08-26T15:04:34.529Z,31.28
2022-08-26T15:08:02.970Z,31.07
2022-08-26T15:11:30.111Z,31.07
2022-08-26T15:14:58.290Z,30.83
2022-08-26T15:18:26.476Z,30.88
2022-08-26T15:21:55.705Z,30.85
2022-08-26T15:25:25.443Z,30.80
2022-08-26T15:28:56.918Z,31.12
2022-08-26T15:32:27.285Z,31.07
2022-08-26T15:35:58.106Z,31.28
2022-08-26T15:39:27.650Z,31.27
2022-08-26T15:43:11.308Z,31.19
2022-08-26T15:46:43.871Z,31.06
2022-08-26T15:50:12.685Z,31.15
2022-08-26T15:53:41.125Z,31.29
2022-08-26T15:57:11.450Z,31.48
2022-08-26T16:00:46.836Z,31.61
2022-08-26T16:04:17.989Z,31.63
2022-08-26T16:07:45.705Z,31.61
2022-08-26T16:11:13.904Z,31.73
2022-08-26T16:14:42.838Z,32.15
2022-08-26T16:18:11.944Z,32.36
2022-08-26T16:21:42.891Z,32.34
2022-08-26T16:25:11.954Z,32.50
2022-08-26T16:28:40.506Z,32.64
2022-08-26T16:32:12.549Z,32.84
2022-08-26T16:35:44.565Z,33.12
2022-08-26T16:39:16.438Z,33.13
2022-08-26T16:42:45.519Z,33.23
2022-08-26T16:46:14.441Z,33.38
2022-08-26T16:49:47.991Z,33.82
2022-08-26T16:53:16.359Z,34.04
2022-08-26T16:56:44.459Z,34.34
2022-08-26T17:00:17.167Z,34.35
2022-08-26T17:03:45.353Z,34.65
2022-08-26T17:07:12.625Z,34.92
2022-08-26T17:10:40.624Z,35.17
2022-08-26T17:14:15.617Z,35.20
2022-08-26T17:17:45.423Z,35.51
2022-08-26T17:21:14.273Z,35.81
2022-08-26T17:24:47.515Z,36.22
2022-08-26T17:28:16.618Z,36.31
2022-08-26T17:31:46.453Z,36.63
2022-08-26T17:35:21.586Z,36.84
2022-08-26T17:38:49.740Z,37.11
2022-08-26T17:42:20.439Z,37.18
2022-08-26T17:45:53.095Z,37.52
2022-08-26T17:49:20.586Z,37.91
2022-08-26T17:52:49.586Z,38.19
2022-08-26T17:56:19.866Z,38.30
2022-08-26T18:00:00.461Z,38.51
2022-08-26T18:03:34.196Z,38.83
2022-08-26T18:07:02.945Z,39.03
2022-08-26T18:10:31.616Z,39.39
2022-08-26T18:13:59.695Z,39.61
2022-08-26T18:17:29.456Z,39.82
2022-08-26T18:21:01.263Z,40.29
2022-08-26T18:24:30.617Z,40.53
2022-08-26T18:27:58.374Z,40.72
2022-08-26T18:31:31.698Z,40.88
2022-08-26T18:35:01.077Z,41.15
2022-08-26T18:38:32.370Z,41.44
2022-08-26T18:42:00.859Z,41.71
2022-08-26T18:45:34.447Z,41.99
2022-08-26T18:49:04.496Z,42.23
2022-08-26T18:52:34.692Z,42.42
2022-08-26T18:56:02.243Z,42.50
2022-08-26T18:59:29.677Z,42.63
2022-08-26T19:03:01.680Z,42.85
2022-08-26T19:06:33.086Z,43.19
2022-08-26T19:10:05.376Z,43.53
2022-08-26T19:13:31.809Z,43.98
2022-08-26T19:17:02.266Z,44.00
2022-08-26T19:20:32.372Z,44.27
2022-08-26T19:24:03.441Z,44.47
2022-08-26T19:27:31.400Z,44.74
2022-08-26T19:30:59.457Z,44.96
2022-08-26T19:34:29.845Z,45.12
2022-08-26T19:37:57.358Z,45.28
2022-08-26T19:41:34.164Z,45.55
2022-08-26T19:45:18.291Z,45.72
2022-08-26T19:48:57.862Z,45.88
2022-08-26T19:52:29.853Z,46.12
2022-08-26T19:55:58.199Z,46.39
2022-08-26T19:59:29.501Z,46.48
2022-08-26T20:02:56.974Z,46.75
2022-08-26T20:06:24.541Z,46.95
2022-08-26T20:09:52.827Z,47.12
2022-08-26T20:13:22.142Z,47.39
2022-08-26T20:16:50.089Z,47.72
2022-08-26T20:20:39.643Z,47.86
2022-08-26T20:24:13.258Z,48.04
2022-08-26T20:27:42.419Z,48.20
2022-08-26T20:31:12.452Z,48.48
2022-08-26T20:34:43.874Z,48.66
2022-08-26T20:38:12.792Z,48.60
2022-08-26T20:41:45.839Z,48.89
2022-08-26T20:45:16.207Z,49.17
2022-08-26T20:48:48.930Z,49.34
2022-08-26T20:52:16.682Z,49.32
2022-08-26T20:55:51.985Z,49.60
2022-08-26T20:59:21.769Z,49.77
2022-08-26T21:02:53.404Z,49.91
2022-08-26T21:06:24.361Z,50.07
2022-08-26T21:09:59.147Z,50.15
2022-08-26T21:13:30.748Z,50.39
2022-08-26T21:17:05.576Z,50.56
2022-08-26T21:20:35.363Z,50.77
2022-08-26T21:24:03.073Z,50.95
2022-08-26T21:27:30.781Z,51.08
2022-08-26T21:30:59.431Z,51.25
2022-08-26T21:34:27.838Z,51.43
2022-08-26T21:37:55.343Z,51.57
2022-08-26T21:41:23.981Z,51.77
2022-08-26T21:44:55.439Z,51.88
2022-08-26T21:48:24.014Z,52.01
2022-08-26T21:51:59.256Z,52.11
2022-08-26T21:55:26.543Z,52.13
2022-08-26T21:58:55.247Z,52.38
2022-08-26T22:02:25.635Z,52.55
2022-08-26T22:05:52.974Z,52.78
2022-08-26T22:09:23.355Z,52.91
2022-08-26T22:13:00.648Z,53.07
2022-08-26T22:16:36.465Z,53.10
2022-08-26T22:20:05.183Z,53.20
2022-08-26T22:23:39.637Z,53.23
2022-08-26T22:27:07.327Z,53.37
2022-08-26T22:30:35.834Z,53.63
2022-08-26T22:34:03.523Z,53.75
2022-08-26T22:37:31.006Z,53.91
2022-08-26T22:41:00.569Z,53.98
2022-08-26T22:44:29.409Z,54.05
2022-08-26T22:47:59.349Z,54.11
2022-08-26T22:51:26.485Z,54.12
2022-08-26T22:54:55.165Z,54.22
2022-08-26T22:58:30.198Z,54.28
2022-08-26T23:01:58.550Z,54.33
2022-08-26T23:05:30.406Z,54.43
2022-08-26T23:09:12.506Z,54.65
2022-08-26T23:12:40.551Z,54.80
2022-08-26T23:16:11.964Z,54.89
2022-08-26T23:19:43.182Z,54.96
2022-08-26T23:23:11.215Z,54.95
2022-08-26T23:26:42.912Z,54.94
2022-08-26T23:30:14.540Z,54.98
2022-08-26T23:34:00.279Z,55.01
2022-08-26T23:37:29.231Z,55.02
2022-08-26T23:41:01.492Z,55.00
2022-08-26T23:44:30.271Z,55.00
2022-08-26T23:47:58.236Z,54.98
2022-08-26T23:51:57.835Z,54.98
2022-08-26T23:55:26.861Z,54.94
2022-08-26T23:58:54.620Z,54.97
